American Spirit — WDH4653 — position and weather

sailwx.info

Track history (hours):
 
Tides and Currents Weather Stations Pressure Air Temp Water Temp Dewpoint Dewpoint Depression Visibility Wind Speed Wind Dir Waves Ship Positions

American Spirit

Owner: American Commercial Lines LLC, Jeffersonville, IN. More information available from US FCC via Universal Licensing System and Coast Guard Vessel Documentation Center.

Last reported at 2018-May-25 01:00 UTC. Time now 2018-May-25 01:04 UTC.
Position N 29°59' W 093°12'.

Length 23 m; draft 2.7 m.

Type: Towing. MMSI: 367619920.

Date/timePositionNaut miles runAvg speedWind from/ knotsBaromVisibWave heightAir tempDewpointWater temp
2018-May-25 01:00N 29°59' W 093°12'0 0.1
2018-May-25 00:30N 29°59' W 093°12'0 0.0
2018-May-25 00:00N 29°59' W 093°12'0 0.0
2018-May-24 23:30N 29°59' W 093°12'0 0.0
2018-May-24 23:00N 29°59' W 093°12'0 0.0
2018-May-24 22:30N 29°59' W 093°12'0 0.0
2018-May-24 22:00N 29°59' W 093°12'0 0.0
2018-May-24 21:30N 29°59' W 093°12'0 0.0
2018-May-24 21:00N 29°59' W 093°12'0 0.0
2018-May-24 20:30N 29°59' W 093°12'0 0.0
2018-May-24 20:00N 29°59' W 093°12'0 0.0
2018-May-24 19:30N 29°59' W 093°12'0 0.0
2018-May-24 19:00N 29°59' W 093°12'0 0.0
2018-May-24 18:30N 29°59' W 093°12'0 0.0
2018-May-24 18:00N 29°59' W 093°12'0 0.0
2018-May-24 17:30N 29°59' W 093°12'0 0.0
2018-May-24 17:00N 29°59' W 093°12'0 0.0
2018-May-24 16:30N 29°59' W 093°12'0 0.0
2018-May-24 16:00N 29°59' W 093°12'1 1.2
2018-May-24 15:30N 29°58' W 093°12'2 4.4
2018-May-24 15:00N 29°57' W 093°10'3 4.1
2018-May-24 14:22N 29°56' W 093°07'2 4.1
2018-May-24 13:57N 29°56' W 093°05'33 2.6
2018-May-24 01:11N 29°54' W 092°27'1 3.7
2018-May-24 01:00N 29°53' W 092°26'2 3.7
2018-May-24 00:30N 29°53' W 092°24'3 3.3
2018-May-23 23:37N 29°51' W 092°22'0 3.5
2018-May-23 23:30N 29°51' W 092°21'2 3.5
2018-May-23 23:00N 29°50' W 092°19'2 3.5
2018-May-23 22:30N 29°50' W 092°18'2 3.7
2018-May-23 22:00N 29°49' W 092°16'2 4.6
2018-May-23 21:30N 29°48' W 092°14'1 2.4
2018-May-23 21:00N 29°47' W 092°12'1 2.3
2018-May-23 20:30N 29°47' W 092°11'0 0.7
2018-May-23 20:00N 29°47' W 092°11'2 3.8
2018-May-23 19:30N 29°47' W 092°09'3 5.2
2018-May-23 19:00N 29°48' W 092°06'3 5.3
2018-May-23 18:30N 29°49' W 092°03'3 5.8
2018-May-23 18:00N 29°50' W 091°60'56 4.0
2018-May-23 04:07N 29°35' W 090°57'1 5.7
2018-May-23 03:55N 29°34' W 090°56'3 6.0
2018-May-23 03:30N 29°33' W 090°54'3 5.6
2018-May-23 02:58N 29°32' W 090°50'3 5.9
2018-May-23 02:30N 29°32' W 090°47'2 4.4
2018-May-23 02:00N 29°33' W 090°45'2 4.2
2018-May-23 01:30N 29°35' W 090°43'2 4.2
2018-May-23 01:00N 29°37' W 090°42'2 4.5
2018-May-23 00:29N 29°36' W 090°40'3 5.4
2018-May-23 00:00N 29°35' W 090°37'3 5.0
2018-May-22 23:30N 29°34' W 090°34'3 5.1
2018-May-22 23:00N 29°34' W 090°32'3 5.4
2018-May-22 22:30N 29°34' W 090°28'34 1.2
2018-May-21 18:25N 29°56' W 089°58'  
2018-May-18 17:26N 29°56' W 089°60'  
2018-May-15 21:57N 29°56' W 089°59'  
Track history (hours):
 
Tides and Currents Weather Stations Pressure Air Temp Water Temp Dewpoint Dewpoint Depression Visibility Wind Speed Wind Dir Waves Ship Positions

American Spirit

Owner: American Commercial Lines LLC, Jeffersonville, IN. More information available from US FCC via Universal Licensing System and Coast Guard Vessel Documentation Center.

Last reported at 2018-May-25 01:00 UTC. Time now 2018-May-25 01:04 UTC.
Position N 29°59' W 093°12'.

Length 23 m; draft 2.7 m.

Type: Towing. MMSI: 367619920.

Date/timePositionNaut miles runAvg speedWind from/ knotsBaromVisibWave heightAir tempDewpointWater temp
2018-May-25 01:00N 29°59' W 093°12'0 0.1
2018-May-25 00:30N 29°59' W 093°12'0 0.0
2018-May-25 00:00N 29°59' W 093°12'0 0.0
2018-May-24 23:30N 29°59' W 093°12'0 0.0
2018-May-24 23:00N 29°59' W 093°12'0 0.0
2018-May-24 22:30N 29°59' W 093°12'0 0.0
2018-May-24 22:00N 29°59' W 093°12'0 0.0
2018-May-24 21:30N 29°59' W 093°12'0 0.0
2018-May-24 21:00N 29°59' W 093°12'0 0.0
2018-May-24 20:30N 29°59' W 093°12'0 0.0
2018-May-24 20:00N 29°59' W 093°12'0 0.0
2018-May-24 19:30N 29°59' W 093°12'0 0.0
2018-May-24 19:00N 29°59' W 093°12'0 0.0
2018-May-24 18:30N 29°59' W 093°12'0 0.0
2018-May-24 18:00N 29°59' W 093°12'0 0.0
2018-May-24 17:30N 29°59' W 093°12'0 0.0
2018-May-24 17:00N 29°59' W 093°12'0 0.0
2018-May-24 16:30N 29°59' W 093°12'0 0.0
2018-May-24 16:00N 29°59' W 093°12'1 1.2
2018-May-24 15:30N 29°58' W 093°12'2 4.4
2018-May-24 15:00N 29°57' W 093°10'3 4.1
2018-May-24 14:22N 29°56' W 093°07'2 4.1
2018-May-24 13:57N 29°56' W 093°05'33 2.6
2018-May-24 01:11N 29°54' W 092°27'1 3.7
2018-May-24 01:00N 29°53' W 092°26'2 3.7
2018-May-24 00:30N 29°53' W 092°24'3 3.3
2018-May-23 23:37N 29°51' W 092°22'0 3.5
2018-May-23 23:30N 29°51' W 092°21'2 3.5
2018-May-23 23:00N 29°50' W 092°19'2 3.5
2018-May-23 22:30N 29°50' W 092°18'2 3.7
2018-May-23 22:00N 29°49' W 092°16'2 4.6
2018-May-23 21:30N 29°48' W 092°14'1 2.4
2018-May-23 21:00N 29°47' W 092°12'1 2.3
2018-May-23 20:30N 29°47' W 092°11'0 0.7
2018-May-23 20:00N 29°47' W 092°11'2 3.8
2018-May-23 19:30N 29°47' W 092°09'3 5.2
2018-May-23 19:00N 29°48' W 092°06'3 5.3
2018-May-23 18:30N 29°49' W 092°03'3 5.8
2018-May-23 18:00N 29°50' W 091°60'56 4.0
2018-May-23 04:07N 29°35' W 090°57'1 5.7
2018-May-23 03:55N 29°34' W 090°56'3 6.0
2018-May-23 03:30N 29°33' W 090°54'3 5.6
2018-May-23 02:58N 29°32' W 090°50'3 5.9
2018-May-23 02:30N 29°32' W 090°47'2 4.4
2018-May-23 02:00N 29°33' W 090°45'2 4.2
2018-May-23 01:30N 29°35' W 090°43'2 4.2
2018-May-23 01:00N 29°37' W 090°42'2 4.5
2018-May-23 00:29N 29°36' W 090°40'3 5.4
2018-May-23 00:00N 29°35' W 090°37'3 5.0
2018-May-22 23:30N 29°34' W 090°34'3 5.1
2018-May-22 23:00N 29°34' W 090°32'3 5.4
2018-May-22 22:30N 29°34' W 090°28'34 1.2
2018-May-21 18:25N 29°56' W 089°58'  
2018-May-18 17:26N 29°56' W 089°60'  
2018-May-15 21:57N 29°56' W 089°59'  

Dump ship's entire track history